SKPC/PCR METAR and TAF weather

Enter ICAO airport designator
Station Type Date Time Source
SKPC METAR 2021/04/12 14:00 UTC NOAA

SKPC 121400Z 08004KT 9999 SCT017 26/23 Q1013 RMK A2992


Station Type Date Time Source
SKPC Decoded METAR 2021/04/12 14:00 UTC NOAA

Puerto Carreno / A. Guauquea, Colombia (SKPC) 06-10N 067-30W
Apr 12, 2021 - 10:00 AM EDT / 2021.04.12 1400 UTC
Wind: from the E (080 degrees) at 5 MPH (4 KT):0
Visibility: greater than 7 mile(s):0
Sky conditions: partly cloudy
Temperature: 78 F (26 C)
Dew Point: 73 F (23 C)
Relative Humidity: 83%
Pressure (altimeter): 29.91 in. Hg (1013 hPa)
ob: SKPC 121400Z 08004KT 9999 SCT017 26/23 Q1013 RMK A2992
cycle: 14

Station Type Date Time Source
SKPC TAF UTC NOAA

Error!

Example: see airport list